sensor_id;sensor_type;location;lat;lon;timestamp;P1;durP1;ratioP1;P2;durP2;ratioP2
74541;SDS011;63015;45.378;20.360;2024-03-23T00:53:07;35.08;;;18.35;;
74541;SDS011;63015;45.378;20.360;2024-03-23T00:55:08;31.73;;;18.35;;
74541;SDS011;63015;45.378;20.360;2024-03-23T00:57:08;30.73;;;16.75;;
74541;SDS011;63015;45.378;20.360;2024-03-23T00:59:09;35.63;;;17.80;;
74541;SDS011;63015;45.378;20.360;2024-03-23T01:01:09;33.60;;;17.90;;
74541;SDS011;63015;45.378;20.360;2024-03-23T01:03:10;34.80;;;18.17;;
74541;SDS011;63015;45.378;20.360;2024-03-23T01:05:10;29.50;;;16.60;;
74541;SDS011;63015;45.378;20.360;2024-03-23T01:07:11;33.92;;;17.50;;
74541;SDS011;63015;45.378;20.360;2024-03-23T01:09:11;32.42;;;18.67;;
74541;SDS011;63015;45.378;20.360;2024-03-23T01:11:12;30.60;;;17.38;;
74541;SDS011;63015;45.378;20.360;2024-03-23T01:13:13;33.85;;;17.98;;
74541;SDS011;63015;45.378;20.360;2024-03-23T01:15:13;35.97;;;17.52;;
74541;SDS011;63015;45.378;20.360;2024-03-23T01:17:14;35.10;;;19.25;;
74541;SDS011;63015;45.378;20.360;2024-03-23T01:19:14;33.85;;;17.30;;
74541;SDS011;63015;45.378;20.360;2024-03-23T01:21:15;34.20;;;17.20;;
74541;SDS011;63015;45.378;20.360;2024-03-23T01:23:15;35.90;;;17.60;;
74541;SDS011;63015;45.378;20.360;2024-03-23T01:25:16;32.85;;;17.60;;
74541;SDS011;63015;45.378;20.360;2024-03-23T01:27:16;32.38;;;18.60;;
74541;SDS011;63015;45.378;20.360;2024-03-23T01:29:17;32.72;;;17.38;;
74541;SDS011;63015;45.378;20.360;2024-03-23T01:31:17;33.38;;;17.33;;
74541;SDS011;63015;45.378;20.360;2024-03-23T01:33:18;31.20;;;17.48;;
74541;SDS011;63015;45.378;20.360;2024-03-23T01:35:18;32.55;;;18.05;;
74541;SDS011;63015;45.378;20.360;2024-03-23T01:37:19;34.97;;;18.65;;
74541;SDS011;63015;45.378;20.360;2024-03-23T01:39:19;33.38;;;17.63;;
74541;SDS011;63015;45.378;20.360;2024-03-23T01:41:20;35.05;;;18.77;;
74541;SDS011;63015;45.378;20.360;2024-03-23T01:43:21;33.80;;;18.23;;
74541;SDS011;63015;45.378;20.360;2024-03-23T01:45:22;33.38;;;18.33;;
74541;SDS011;63015;45.378;20.360;2024-03-23T01:47:23;33.63;;;17.90;;
74541;SDS011;63015;45.378;20.360;2024-03-23T01:49:24;33.50;;;20.08;;
74541;SDS011;63015;45.378;20.360;2024-03-23T01:51:24;32.05;;;17.65;;
74541;SDS011;63015;45.378;20.360;2024-03-23T01:53:26;34.28;;;17.85;;
74541;SDS011;63015;45.378;20.360;2024-03-23T01:55:27;32.75;;;17.63;;
74541;SDS011;63015;45.378;20.360;2024-03-23T01:57:27;35.83;;;18.15;;
74541;SDS011;63015;45.378;20.360;2024-03-23T01:59:28;35.65;;;18.42;;
74541;SDS011;63015;45.378;20.360;2024-03-23T02:01:28;33.20;;;18.05;;
74541;SDS011;63015;45.378;20.360;2024-03-23T02:03:29;34.08;;;17.92;;
74541;SDS011;63015;45.378;20.360;2024-03-23T02:05:29;34.90;;;17.88;;
74541;SDS011;63015;45.378;20.360;2024-03-23T02:07:30;35.15;;;20.52;;
74541;SDS011;63015;45.378;20.360;2024-03-23T02:09:30;36.90;;;17.80;;
74541;SDS011;63015;45.378;20.360;2024-03-23T02:11:32;35.35;;;20.58;;
74541;SDS011;63015;45.378;20.360;2024-03-23T02:13:32;35.42;;;18.48;;
74541;SDS011;63015;45.378;20.360;2024-03-23T02:15:33;33.20;;;18.45;;
74541;SDS011;63015;45.378;20.360;2024-03-23T02:17:34;33.85;;;18.70;;
74541;SDS011;63015;45.378;20.360;2024-03-23T02:19:35;36.88;;;21.25;;
74541;SDS011;63015;45.378;20.360;2024-03-23T02:21:35;37.83;;;18.77;;
74541;SDS011;63015;45.378;20.360;2024-03-23T02:23:36;40.67;;;22.35;;
74541;SDS011;63015;45.378;20.360;2024-03-23T02:25:37;41.42;;;20.50;;
74541;SDS011;63015;45.378;20.360;2024-03-23T02:27:37;40.88;;;19.98;;
74541;SDS011;63015;45.378;20.360;2024-03-23T02:29:39;35.85;;;20.00;;
74541;SDS011;63015;45.378;20.360;2024-03-23T02:31:39;38.83;;;20.48;;
74541;SDS011;63015;45.378;20.360;2024-03-23T02:33:40;37.03;;;19.23;;
74541;SDS011;63015;45.378;20.360;2024-03-23T02:35:41;36.33;;;19.05;;
74541;SDS011;63015;45.378;20.360;2024-03-23T02:37:41;39.13;;;19.20;;
74541;SDS011;63015;45.378;20.360;2024-03-23T02:39:42;36.78;;;20.77;;
74541;SDS011;63015;45.378;20.360;2024-03-23T02:41:42;37.00;;;19.10;;
74541;SDS011;63015;45.378;20.360;2024-03-23T02:43:43;36.55;;;18.67;;
74541;SDS011;63015;45.378;20.360;2024-03-23T02:45:43;34.55;;;18.88;;
74541;SDS011;63015;45.378;20.360;2024-03-23T02:47:44;37.13;;;21.70;;
74541;SDS011;63015;45.378;20.360;2024-03-23T02:49:44;36.63;;;19.95;;
74541;SDS011;63015;45.378;20.360;2024-03-23T02:51:45;33.85;;;18.83;;
74541;SDS011;63015;45.378;20.360;2024-03-23T02:53:48;38.05;;;21.17;;
74541;SDS011;63015;45.378;20.360;2024-03-23T02:55:49;33.72;;;20.25;;
74541;SDS011;63015;45.378;20.360;2024-03-23T02:57:49;36.22;;;21.70;;
74541;SDS011;63015;45.378;20.360;2024-03-23T02:59:50;37.80;;;20.75;;
74541;SDS011;63015;45.378;20.360;2024-03-23T03:01:50;37.40;;;19.55;;
74541;SDS011;63015;45.378;20.360;2024-03-23T03:03:51;35.90;;;20.45;;
74541;SDS011;63015;45.378;20.360;2024-03-23T03:05:54;35.65;;;20.92;;
74541;SDS011;63015;45.378;20.360;2024-03-23T03:07:56;41.85;;;20.23;;
74541;SDS011;63015;45.378;20.360;2024-03-23T03:09:56;38.72;;;21.83;;
74541;SDS011;63015;45.378;20.360;2024-03-23T03:11:57;36.67;;;19.58;;
74541;SDS011;63015;45.378;20.360;2024-03-23T03:13:57;42.95;;;22.25;;
74541;SDS011;63015;45.378;20.360;2024-03-23T03:16:00;40.47;;;23.20;;
74541;SDS011;63015;45.378;20.360;2024-03-23T03:18:00;40.28;;;20.25;;
74541;SDS011;63015;45.378;20.360;2024-03-23T03:20:01;40.45;;;22.15;;
74541;SDS011;63015;45.378;20.360;2024-03-23T03:22:02;40.83;;;20.52;;
74541;SDS011;63015;45.378;20.360;2024-03-23T03:24:05;39.00;;;20.88;;
74541;SDS011;63015;45.378;20.360;2024-03-23T03:26:06;36.50;;;19.88;;
74541;SDS011;63015;45.378;20.360;2024-03-23T03:28:07;38.55;;;23.20;;
74541;SDS011;63015;45.378;20.360;2024-03-23T03:30:08;40.10;;;22.08;;
74541;SDS011;63015;45.378;20.360;2024-03-23T03:32:09;40.38;;;20.38;;
74541;SDS011;63015;45.378;20.360;2024-03-23T03:34:09;39.47;;;21.10;;
74541;SDS011;63015;45.378;20.360;2024-03-23T03:36:10;43.38;;;21.20;;
74541;SDS011;63015;45.378;20.360;2024-03-23T03:38:11;40.40;;;22.85;;
74541;SDS011;63015;45.378;20.360;2024-03-23T03:40:12;35.80;;;20.17;;
74541;SDS011;63015;45.378;20.360;2024-03-23T03:42:15;36.75;;;21.63;;
74541;SDS011;63015;45.378;20.360;2024-03-23T03:44:15;37.75;;;20.05;;
74541;SDS011;63015;45.378;20.360;2024-03-23T03:46:16;37.13;;;21.73;;
74541;SDS011;63015;45.378;20.360;2024-03-23T03:48:17;39.17;;;20.85;;
74541;SDS011;63015;45.378;20.360;2024-03-23T03:50:17;36.65;;;20.17;;
74541;SDS011;63015;45.378;20.360;2024-03-23T03:52:18;37.63;;;20.30;;
74541;SDS011;63015;45.378;20.360;2024-03-23T03:54:19;36.35;;;21.17;;
74541;SDS011;63015;45.378;20.360;2024-03-23T03:56:21;34.88;;;19.70;;
74541;SDS011;63015;45.378;20.360;2024-03-23T03:58:22;44.20;;;20.23;;
74541;SDS011;63015;45.378;20.360;2024-03-23T04:00:23;37.35;;;21.02;;
74541;SDS011;63015;45.378;20.360;2024-03-23T04:02:23;33.90;;;21.55;;
74541;SDS011;63015;45.378;20.360;2024-03-23T04:04:24;42.58;;;22.48;;
74541;SDS011;63015;45.378;20.360;2024-03-23T04:06:24;39.75;;;21.83;;
74541;SDS011;63015;45.378;20.360;2024-03-23T04:08:25;38.72;;;22.42;;
74541;SDS011;63015;45.378;20.360;2024-03-23T04:10:25;39.72;;;22.27;;
74541;SDS011;63015;45.378;20.360;2024-03-23T04:12:26;41.80;;;20.40;;
74541;SDS011;63015;45.378;20.360;2024-03-23T04:14:27;39.03;;;20.75;;
74541;SDS011;63015;45.378;20.360;2024-03-23T04:16:28;42.97;;;22.73;;
74541;SDS011;63015;45.378;20.360;2024-03-23T04:18:29;41.83;;;22.50;;
74541;SDS011;63015;45.378;20.360;2024-03-23T04:20:30;43.15;;;21.83;;
74541;SDS011;63015;45.378;20.360;2024-03-23T04:22:30;39.17;;;20.88;;
74541;SDS011;63015;45.378;20.360;2024-03-23T04:24:31;43.60;;;26.10;;
74541;SDS011;63015;45.378;20.360;2024-03-23T04:26:41;43.78;;;23.45;;
74541;SDS011;63015;45.378;20.360;2024-03-23T04:28:42;42.72;;;21.70;;
74541;SDS011;63015;45.378;20.360;2024-03-23T04:30:43;39.75;;;19.95;;
74541;SDS011;63015;45.378;20.360;2024-03-23T04:32:43;40.22;;;20.70;;
74541;SDS011;63015;45.378;20.360;2024-03-23T04:34:44;38.22;;;21.90;;
74541;SDS011;63015;45.378;20.360;2024-03-23T04:36:45;42.90;;;23.88;;
74541;SDS011;63015;45.378;20.360;2024-03-23T04:38:46;45.50;;;23.20;;
74541;SDS011;63015;45.378;20.360;2024-03-23T04:40:56;46.83;;;21.75;;
74541;SDS011;63015;45.378;20.360;2024-03-23T04:42:57;41.30;;;22.52;;
74541;SDS011;63015;45.378;20.360;2024-03-23T04:44:58;39.40;;;21.00;;
74541;SDS011;63015;45.378;20.360;2024-03-23T04:46:59;45.47;;;23.58;;
74541;SDS011;63015;45.378;20.360;2024-03-23T04:49:00;44.22;;;24.00;;
74541;SDS011;63015;45.378;20.360;2024-03-23T04:51:01;41.72;;;22.63;;
74541;SDS011;63015;45.378;20.360;2024-03-23T04:53:02;47.75;;;25.73;;
74541;SDS011;63015;45.378;20.360;2024-03-23T04:55:03;43.17;;;22.02;;
74541;SDS011;63015;45.378;20.360;2024-03-23T04:57:04;52.63;;;25.80;;
74541;SDS011;63015;45.378;20.360;2024-03-23T04:59:05;43.47;;;22.35;;
74541;SDS011;63015;45.378;20.360;2024-03-23T05:01:06;44.53;;;22.45;;
74541;SDS011;63015;45.378;20.360;2024-03-23T05:03:06;46.40;;;23.05;;
74541;SDS011;63015;45.378;20.360;2024-03-23T05:05:07;47.65;;;25.73;;
74541;SDS011;63015;45.378;20.360;2024-03-23T05:07:07;51.13;;;27.55;;
74541;SDS011;63015;45.378;20.360;2024-03-23T05:09:08;48.65;;;23.25;;
74541;SDS011;63015;45.378;20.360;2024-03-23T05:13:12;44.35;;;22.33;;
74541;SDS011;63015;45.378;20.360;2024-03-23T05:15:12;48.13;;;26.42;;
74541;SDS011;63015;45.378;20.360;2024-03-23T05:17:13;50.95;;;27.02;;
74541;SDS011;63015;45.378;20.360;2024-03-23T05:19:13;55.38;;;26.60;;
74541;SDS011;63015;45.378;20.360;2024-03-23T05:21:14;49.35;;;24.73;;
74541;SDS011;63015;45.378;20.360;2024-03-23T05:23:14;49.60;;;26.58;;
74541;SDS011;63015;45.378;20.360;2024-03-23T05:25:15;51.90;;;27.08;;
74541;SDS011;63015;45.378;20.360;2024-03-23T05:27:16;51.38;;;26.23;;
74541;SDS011;63015;45.378;20.360;2024-03-23T05:29:16;49.25;;;25.10;;
74541;SDS011;63015;45.378;20.360;2024-03-23T05:31:51;48.83;;;26.88;;
74541;SDS011;63015;45.378;20.360;2024-03-23T05:33:44;48.50;;;28.05;;
74541;SDS011;63015;45.378;20.360;2024-03-23T05:35:45;53.17;;;26.90;;
74541;SDS011;63015;45.378;20.360;2024-03-23T05:37:45;49.58;;;27.40;;
74541;SDS011;63015;45.378;20.360;2024-03-23T05:39:46;45.90;;;26.10;;
74541;SDS011;63015;45.378;20.360;2024-03-23T05:41:48;52.70;;;27.48;;
74541;SDS011;63015;45.378;20.360;2024-03-23T05:43:48;49.05;;;24.92;;
74541;SDS011;63015;45.378;20.360;2024-03-23T05:45:59;62.75;;;30.92;;
74541;SDS011;63015;45.378;20.360;2024-03-23T05:48:00;50.08;;;27.58;;
74541;SDS011;63015;45.378;20.360;2024-03-23T05:50:00;49.85;;;27.00;;
74541;SDS011;63015;45.378;20.360;2024-03-23T05:52:02;47.47;;;25.10;;
74541;SDS011;63015;45.378;20.360;2024-03-23T05:54:03;44.80;;;24.30;;
74541;SDS011;63015;45.378;20.360;2024-03-23T05:56:04;46.88;;;22.80;;
74541;SDS011;63015;45.378;20.360;2024-03-23T05:58:06;48.72;;;24.35;;
74541;SDS011;63015;45.378;20.360;2024-03-23T06:00:06;44.83;;;23.80;;
74541;SDS011;63015;45.378;20.360;2024-03-23T06:02:15;45.65;;;24.20;;
74541;SDS011;63015;45.378;20.360;2024-03-23T06:04:16;47.92;;;25.13;;
74541;SDS011;63015;45.378;20.360;2024-03-23T06:06:16;47.28;;;24.30;;
74541;SDS011;63015;45.378;20.360;2024-03-23T06:08:17;46.00;;;23.92;;
74541;SDS011;63015;45.378;20.360;2024-03-23T06:10:17;46.22;;;25.15;;
74541;SDS011;63015;45.378;20.360;2024-03-23T06:12:18;48.38;;;23.25;;
74541;SDS011;63015;45.378;20.360;2024-03-23T06:14:19;46.22;;;23.90;;
74541;SDS011;63015;45.378;20.360;2024-03-23T06:16:19;43.45;;;23.55;;
74541;SDS011;63015;45.378;20.360;2024-03-23T06:18:23;42.13;;;23.48;;
74541;SDS011;63015;45.378;20.360;2024-03-23T06:20:24;41.75;;;24.60;;
74541;SDS011;63015;45.378;20.360;2024-03-23T06:22:24;41.92;;;21.83;;
74541;SDS011;63015;45.378;20.360;2024-03-23T06:24:25;42.80;;;22.00;;
74541;SDS011;63015;45.378;20.360;2024-03-23T06:26:25;40.10;;;21.20;;
74541;SDS011;63015;45.378;20.360;2024-03-23T06:28:26;40.00;;;22.38;;
74541;SDS011;63015;45.378;20.360;2024-03-23T06:30:26;40.25;;;21.60;;
74541;SDS011;63015;45.378;20.360;2024-03-23T06:32:27;39.92;;;20.45;;
74541;SDS011;63015;45.378;20.360;2024-03-23T06:34:29;36.75;;;20.17;;
74541;SDS011;63015;45.378;20.360;2024-03-23T06:36:30;44.15;;;20.70;;
74541;SDS011;63015;45.378;20.360;2024-03-23T06:38:31;40.58;;;19.70;;
74541;SDS011;63015;45.378;20.360;2024-03-23T06:40:31;37.08;;;20.33;;
74541;SDS011;63015;45.378;20.360;2024-03-23T06:42:32;38.70;;;20.00;;
74541;SDS011;63015;45.378;20.360;2024-03-23T06:44:33;38.75;;;21.25;;
74541;SDS011;63015;45.378;20.360;2024-03-23T06:46:34;35.08;;;19.70;;
74541;SDS011;63015;45.378;20.360;2024-03-23T06:48:34;36.00;;;19.70;;
74541;SDS011;63015;45.378;20.360;2024-03-23T06:50:35;34.65;;;18.73;;
74541;SDS011;63015;45.378;20.360;2024-03-23T06:52:35;32.63;;;20.13;;
74541;SDS011;63015;45.378;20.360;2024-03-23T06:54:36;36.00;;;19.42;;
74541;SDS011;63015;45.378;20.360;2024-03-23T06:56:36;38.88;;;21.20;;
74541;SDS011;63015;45.378;20.360;2024-03-23T06:58:37;34.35;;;19.42;;
74541;SDS011;63015;45.378;20.360;2024-03-23T07:00:37;39.55;;;19.48;;
74541;SDS011;63015;45.378;20.360;2024-03-23T07:02:38;36.30;;;20.38;;
74541;SDS011;63015;45.378;20.360;2024-03-23T07:04:39;39.13;;;19.35;;
74541;SDS011;63015;45.378;20.360;2024-03-23T07:06:43;36.13;;;18.55;;
74541;SDS011;63015;45.378;20.360;2024-03-23T07:08:44;37.60;;;18.23;;
74541;SDS011;63015;45.378;20.360;2024-03-23T07:10:44;35.97;;;19.15;;
74541;SDS011;63015;45.378;20.360;2024-03-23T07:12:45;33.40;;;18.20;;
74541;SDS011;63015;45.378;20.360;2024-03-23T07:14:45;32.40;;;16.70;;
74541;SDS011;63015;45.378;20.360;2024-03-23T07:16:46;31.95;;;16.88;;
74541;SDS011;63015;45.378;20.360;2024-03-23T07:18:46;32.72;;;17.45;;
74541;SDS011;63015;45.378;20.360;2024-03-23T07:20:53;36.28;;;16.77;;
74541;SDS011;63015;45.378;20.360;2024-03-23T07:22:54;31.60;;;16.05;;
74541;SDS011;63015;45.378;20.360;2024-03-23T07:24:54;28.98;;;16.48;;
74541;SDS011;63015;45.378;20.360;2024-03-23T07:26:55;33.00;;;15.98;;
74541;SDS011;63015;45.378;20.360;2024-03-23T07:28:58;28.75;;;15.70;;
74541;SDS011;63015;45.378;20.360;2024-03-23T07:31:07;29.70;;;15.85;;
74541;SDS011;63015;45.378;20.360;2024-03-23T07:33:09;26.10;;;15.80;;
74541;SDS011;63015;45.378;20.360;2024-03-23T07:35:09;37.90;;;16.50;;
74541;SDS011;63015;45.378;20.360;2024-03-23T07:37:10;29.63;;;15.00;;
74541;SDS011;63015;45.378;20.360;2024-03-23T07:39:11;28.92;;;14.35;;
74541;SDS011;63015;45.378;20.360;2024-03-23T07:41:13;25.98;;;14.52;;
74541;SDS011;63015;45.378;20.360;2024-03-23T07:43:17;31.63;;;15.10;;
74541;SDS011;63015;45.378;20.360;2024-03-23T07:45:17;29.50;;;15.30;;
74541;SDS011;63015;45.378;20.360;2024-03-23T07:47:18;25.33;;;12.75;;
74541;SDS011;63015;45.378;20.360;2024-03-23T07:49:18;23.58;;;12.52;;
74541;SDS011;63015;45.378;20.360;2024-03-23T07:51:22;23.42;;;12.98;;
74541;SDS011;63015;45.378;20.360;2024-03-23T07:53:23;23.35;;;12.32;;
74541;SDS011;63015;45.378;20.360;2024-03-23T07:55:24;22.65;;;12.82;;
74541;SDS011;63015;45.378;20.360;2024-03-23T07:57:50;25.52;;;12.90;;
74541;SDS011;63015;45.378;20.360;2024-03-23T07:59:51;27.42;;;12.52;;
74541;SDS011;63015;45.378;20.360;2024-03-23T08:01:52;25.15;;;12.57;;
74541;SDS011;63015;45.378;20.360;2024-03-23T08:03:52;20.65;;;12.15;;
74541;SDS011;63015;45.378;20.360;2024-03-23T08:05:54;20.65;;;11.05;;
74541;SDS011;63015;45.378;20.360;2024-03-23T08:07:54;21.67;;;11.45;;
74541;SDS011;63015;45.378;20.360;2024-03-23T08:09:55;23.75;;;11.75;;
74541;SDS011;63015;45.378;20.360;2024-03-23T08:11:55;18.75;;;11.07;;
74541;SDS011;63015;45.378;20.360;2024-03-23T08:13:56;20.13;;;11.45;;
74541;SDS011;63015;45.378;20.360;2024-03-23T08:15:57;21.45;;;11.27;;
74541;SDS011;63015;45.378;20.360;2024-03-23T08:17:59;25.55;;;11.65;;
74541;SDS011;63015;45.378;20.360;2024-03-23T08:20:00;20.95;;;10.75;;
74541;SDS011;63015;45.378;20.360;2024-03-23T08:22:00;22.45;;;11.23;;
74541;SDS011;63015;45.378;20.360;2024-03-23T08:24:02;18.33;;;10.82;;
74541;SDS011;63015;45.378;20.360;2024-03-23T08:26:03;18.23;;;10.70;;
74541;SDS011;63015;45.378;20.360;2024-03-23T08:28:05;18.77;;;10.70;;
74541;SDS011;63015;45.378;20.360;2024-03-23T08:30:07;17.92;;;11.05;;
74541;SDS011;63015;45.378;20.360;2024-03-23T08:32:08;19.63;;;11.30;;
74541;SDS011;63015;45.378;20.360;2024-03-23T08:34:08;18.80;;;10.90;;
74541;SDS011;63015;45.378;20.360;2024-03-23T08:36:09;19.83;;;11.15;;
74541;SDS011;63015;45.378;20.360;2024-03-23T08:38:12;21.73;;;10.63;;
74541;SDS011;63015;45.378;20.360;2024-03-23T08:40:13;18.45;;;10.52;;
74541;SDS011;63015;45.378;20.360;2024-03-23T08:42:13;17.65;;;10.07;;
74541;SDS011;63015;45.378;20.360;2024-03-23T08:44:14;20.60;;;9.88;;
74541;SDS011;63015;45.378;20.360;2024-03-23T08:46:15;20.05;;;10.85;;
74541;SDS011;63015;45.378;20.360;2024-03-23T08:48:16;16.52;;;10.05;;
74541;SDS011;63015;45.378;20.360;2024-03-23T08:50:16;18.42;;;10.30;;
74541;SDS011;63015;45.378;20.360;2024-03-23T08:52:17;16.60;;;9.80;;
74541;SDS011;63015;45.378;20.360;2024-03-23T08:54:17;18.85;;;9.73;;
74541;SDS011;63015;45.378;20.360;2024-03-23T08:56:20;16.80;;;10.05;;
74541;SDS011;63015;45.378;20.360;2024-03-23T08:58:21;15.80;;;8.85;;
74541;SDS011;63015;45.378;20.360;2024-03-23T09:00:21;16.08;;;8.45;;
74541;SDS011;63015;45.378;20.360;2024-03-23T09:02:22;17.45;;;9.02;;
74541;SDS011;63015;45.378;20.360;2024-03-23T09:04:22;16.58;;;8.73;;
74541;SDS011;63015;45.378;20.360;2024-03-23T09:06:23;19.10;;;9.38;;
74541;SDS011;63015;45.378;20.360;2024-03-23T09:08:24;16.30;;;7.97;;
74541;SDS011;63015;45.378;20.360;2024-03-23T09:10:24;18.08;;;9.05;;
74541;SDS011;63015;45.378;20.360;2024-03-23T09:12:25;14.93;;;9.13;;
74541;SDS011;63015;45.378;20.360;2024-03-23T09:14:25;17.23;;;8.88;;
74541;SDS011;63015;45.378;20.360;2024-03-23T09:16:26;14.98;;;8.45;;
74541;SDS011;63015;45.378;20.360;2024-03-23T09:18:27;16.23;;;8.57;;
74541;SDS011;63015;45.378;20.360;2024-03-23T09:20:28;18.77;;;10.40;;
74541;SDS011;63015;45.378;20.360;2024-03-23T09:22:28;21.17;;;9.90;;
74541;SDS011;63015;45.378;20.360;2024-03-23T09:24:29;23.05;;;10.27;;
74541;SDS011;63015;45.378;20.360;2024-03-23T09:26:29;17.65;;;8.98;;
74541;SDS011;63015;45.378;20.360;2024-03-23T09:28:30;16.52;;;9.73;;
74541;SDS011;63015;45.378;20.360;2024-03-23T09:30:31;15.57;;;9.02;;
74541;SDS011;63015;45.378;20.360;2024-03-23T09:32:33;18.48;;;10.88;;
74541;SDS011;63015;45.378;20.360;2024-03-23T09:34:34;18.23;;;9.32;;
74541;SDS011;63015;45.378;20.360;2024-03-23T09:36:34;15.98;;;10.02;;
74541;SDS011;63015;45.378;20.360;2024-03-23T09:38:35;24.17;;;10.20;;
74541;SDS011;63015;45.378;20.360;2024-03-23T09:40:42;16.75;;;9.63;;
74541;SDS011;63015;45.378;20.360;2024-03-23T09:42:43;17.27;;;9.63;;
74541;SDS011;63015;45.378;20.360;2024-03-23T09:44:50;16.45;;;9.25;;
74541;SDS011;63015;45.378;20.360;2024-03-23T09:46:51;17.52;;;10.45;;
74541;SDS011;63015;45.378;20.360;2024-03-23T09:48:52;16.70;;;8.85;;
74541;SDS011;63015;45.378;20.360;2024-03-23T09:50:53;15.20;;;9.38;;
74541;SDS011;63015;45.378;20.360;2024-03-23T09:52:53;15.68;;;9.05;;
74541;SDS011;63015;45.378;20.360;2024-03-23T09:54:54;16.45;;;8.85;;
74541;SDS011;63015;45.378;20.360;2024-03-23T09:56:54;18.58;;;9.55;;
74541;SDS011;63015;45.378;20.360;2024-03-23T09:59:04;12.70;;;7.85;;
74541;SDS011;63015;45.378;20.360;2024-03-23T10:01:04;12.05;;;7.93;;
74541;SDS011;63015;45.378;20.360;2024-03-23T10:03:05;14.65;;;7.95;;
74541;SDS011;63015;45.378;20.360;2024-03-23T10:05:19;13.82;;;8.75;;
74541;SDS011;63015;45.378;20.360;2024-03-23T10:07:21;12.25;;;7.93;;
74541;SDS011;63015;45.378;20.360;2024-03-23T10:09:22;14.60;;;7.72;;
74541;SDS011;63015;45.378;20.360;2024-03-23T10:11:23;15.75;;;9.10;;
74541;SDS011;63015;45.378;20.360;2024-03-23T10:13:28;13.30;;;8.25;;
74541;SDS011;63015;45.378;20.360;2024-03-23T10:15:35;13.45;;;7.50;;
74541;SDS011;63015;45.378;20.360;2024-03-23T10:17:36;14.85;;;7.35;;
74541;SDS011;63015;45.378;20.360;2024-03-23T10:19:38;11.38;;;7.38;;
74541;SDS011;63015;45.378;20.360;2024-03-23T10:21:38;12.13;;;6.75;;
74541;SDS011;63015;45.378;20.360;2024-03-23T10:23:39;12.82;;;7.63;;
74541;SDS011;63015;45.378;20.360;2024-03-23T10:25:41;11.70;;;6.63;;
74541;SDS011;63015;45.378;20.360;2024-03-23T10:27:41;13.30;;;7.05;;
74541;SDS011;63015;45.378;20.360;2024-03-23T10:29:43;12.75;;;7.43;;
74541;SDS011;63015;45.378;20.360;2024-03-23T10:31:47;13.02;;;7.43;;
74541;SDS011;63015;45.378;20.360;2024-03-23T10:33:48;17.50;;;7.95;;
74541;SDS011;63015;45.378;20.360;2024-03-23T10:35:48;14.25;;;7.22;;
74541;SDS011;63015;45.378;20.360;2024-03-23T10:37:49;13.15;;;7.35;;
74541;SDS011;63015;45.378;20.360;2024-03-23T10:39:51;12.88;;;7.45;;
74541;SDS011;63015;45.378;20.360;2024-03-23T10:41:52;13.38;;;7.55;;
74541;SDS011;63015;45.378;20.360;2024-03-23T10:43:56;14.30;;;7.25;;
74541;SDS011;63015;45.378;20.360;2024-03-23T10:45:58;12.23;;;7.32;;
74541;SDS011;63015;45.378;20.360;2024-03-23T10:47:59;13.85;;;7.53;;
74541;SDS011;63015;45.378;20.360;2024-03-23T10:49:59;16.27;;;7.47;;
74541;SDS011;63015;45.378;20.360;2024-03-23T10:52:00;15.73;;;8.27;;
74541;SDS011;63015;45.378;20.360;2024-03-23T10:56:04;11.60;;;6.13;;
74541;SDS011;63015;45.378;20.360;2024-03-23T10:58:07;14.35;;;6.15;;
74541;SDS011;63015;45.378;20.360;2024-03-23T11:00:07;8.90;;;5.38;;
74541;SDS011;63015;45.378;20.360;2024-03-23T11:02:09;12.73;;;5.68;;
74541;SDS011;63015;45.378;20.360;2024-03-23T11:04:37;11.40;;;6.45;;
74541;SDS011;63015;45.378;20.360;2024-03-23T11:06:42;12.93;;;6.97;;
74541;SDS011;63015;45.378;20.360;2024-03-23T11:08:43;11.10;;;5.72;;
74541;SDS011;63015;45.378;20.360;2024-03-23T11:10:43;9.35;;;5.22;;
74541;SDS011;63015;45.378;20.360;2024-03-23T11:12:44;8.65;;;5.40;;
74541;SDS011;63015;45.378;20.360;2024-03-23T11:14:45;10.20;;;4.70;;
74541;SDS011;63015;45.378;20.360;2024-03-23T11:16:46;10.27;;;5.13;;
74541;SDS011;63015;45.378;20.360;2024-03-23T11:21:54;10.88;;;5.20;;
74541;SDS011;63015;45.378;20.360;2024-03-23T11:23:55;8.68;;;5.18;;
74541;SDS011;63015;45.378;20.360;2024-03-23T11:26:13;10.15;;;5.20;;
74541;SDS011;63015;45.378;20.360;2024-03-23T11:28:14;11.80;;;5.45;;
74541;SDS011;63015;45.378;20.360;2024-03-23T11:30:16;10.80;;;5.55;;
74541;SDS011;63015;45.378;20.360;2024-03-23T11:32:28;14.98;;;6.78;;
74541;SDS011;63015;45.378;20.360;2024-03-23T11:34:31;9.90;;;5.25;;
74541;SDS011;63015;45.378;20.360;2024-03-23T11:36:36;9.23;;;5.32;;
74541;SDS011;63015;45.378;20.360;2024-03-23T11:38:36;8.75;;;4.82;;
74541;SDS011;63015;45.378;20.360;2024-03-23T11:40:38;9.63;;;4.30;;
74541;SDS011;63015;45.378;20.360;2024-03-23T11:42:39;9.95;;;4.53;;
74541;SDS011;63015;45.378;20.360;2024-03-23T11:44:40;6.47;;;4.03;;
74541;SDS011;63015;45.378;20.360;2024-03-23T11:46:40;8.45;;;5.03;;
74541;SDS011;63015;45.378;20.360;2024-03-23T11:48:41;10.98;;;4.75;;
74541;SDS011;63015;45.378;20.360;2024-03-23T11:50:53;8.07;;;3.78;;
74541;SDS011;63015;45.378;20.360;2024-03-23T11:53:28;7.97;;;4.03;;
74541;SDS011;63015;45.378;20.360;2024-03-23T11:55:23;6.35;;;3.55;;
74541;SDS011;63015;45.378;20.360;2024-03-23T11:57:24;6.78;;;4.13;;
74541;SDS011;63015;45.378;20.360;2024-03-23T11:59:34;6.82;;;3.58;;
74541;SDS011;63015;45.378;20.360;2024-03-23T12:01:36;7.72;;;3.30;;
74541;SDS011;63015;45.378;20.360;2024-03-23T12:03:37;7.63;;;3.80;;
74541;SDS011;63015;45.378;20.360;2024-03-23T12:05:38;6.57;;;3.25;;
74541;SDS011;63015;45.378;20.360;2024-03-23T12:07:38;6.72;;;3.65;;
74541;SDS011;63015;45.378;20.360;2024-03-23T12:09:40;6.57;;;3.67;;
74541;SDS011;63015;45.378;20.360;2024-03-23T12:11:41;5.32;;;3.08;;
74541;SDS011;63015;45.378;20.360;2024-03-23T12:13:42;5.85;;;3.33;;
74541;SDS011;63015;45.378;20.360;2024-03-23T12:15:49;6.55;;;3.28;;
74541;SDS011;63015;45.378;20.360;2024-03-23T12:17:51;6.82;;;3.35;;
74541;SDS011;63015;45.378;20.360;2024-03-23T12:19:51;6.82;;;3.33;;
74541;SDS011;63015;45.378;20.360;2024-03-23T12:21:53;6.55;;;3.25;;
74541;SDS011;63015;45.378;20.360;2024-03-23T12:23:54;7.82;;;3.53;;
74541;SDS011;63015;45.378;20.360;2024-03-23T12:25:55;5.47;;;3.50;;
74541;SDS011;63015;45.378;20.360;2024-03-23T12:27:58;8.43;;;3.95;;
74541;SDS011;63015;45.378;20.360;2024-03-23T12:29:59;6.13;;;2.90;;
74541;SDS011;63015;45.378;20.360;2024-03-23T12:32:02;6.05;;;2.72;;
74541;SDS011;63015;45.378;20.360;2024-03-23T12:34:02;11.00;;;2.83;;
74541;SDS011;63015;45.378;20.360;2024-03-23T12:36:03;5.32;;;2.63;;
74541;SDS011;63015;45.378;20.360;2024-03-23T12:38:04;6.75;;;2.35;;
74541;SDS011;63015;45.378;20.360;2024-03-23T12:40:05;6.57;;;2.60;;
74541;SDS011;63015;45.378;20.360;2024-03-23T12:42:07;8.05;;;2.92;;
74541;SDS011;63015;45.378;20.360;2024-03-23T12:44:07;5.50;;;2.72;;